createdAt,value
2019-03-02T00:01:29.944Z,78916.02
2019-03-02T00:03:59.107Z,78915.00
2019-03-02T00:06:28.651Z,78922.08
2019-03-02T00:08:59.928Z,78921.06
2019-03-02T00:11:29.330Z,78925.11
2019-03-02T00:13:58.521Z,78908.94
2019-03-02T00:16:27.756Z,78912.98
2019-03-02T00:18:56.897Z,78913.98
2019-03-02T00:21:27.784Z,78913.98
2019-03-02T00:23:57.050Z,78912.98
2019-03-02T00:26:26.239Z,78894.78
2019-03-02T00:28:56.148Z,78899.84
2019-03-02T00:31:25.361Z,78903.88
2019-03-02T00:33:56.677Z,78895.80
2019-03-02T00:36:26.168Z,78901.86
2019-03-02T00:38:55.669Z,78902.88
2019-03-02T00:41:25.197Z,78898.83
2019-03-02T00:43:54.349Z,78896.81
2019-03-02T00:46:24.090Z,78893.78
2019-03-02T00:48:54.501Z,78899.84
2019-03-02T00:51:24.173Z,78879.63
2019-03-02T00:53:53.305Z,78868.52
2019-03-02T00:56:22.739Z,78861.44
2019-03-02T00:58:51.929Z,78845.27
2019-03-02T01:01:21.833Z,78871.55
2019-03-02T01:03:51.510Z,78866.48
2019-03-02T01:06:20.787Z,78867.50
2019-03-02T01:08:49.997Z,78838.19
2019-03-02T01:11:19.153Z,78839.20
2019-03-02T01:13:48.970Z,78848.30
2019-03-02T01:16:20.053Z,78850.32
2019-03-02T01:18:48.999Z,78832.13
2019-03-02T01:21:18.449Z,78818.99
2019-03-02T01:23:47.627Z,78811.92
2019-03-02T01:26:16.891Z,78808.89
2019-03-02T01:28:46.420Z,78807.88
2019-03-02T01:31:15.598Z,78806.86
2019-03-02T01:33:44.776Z,78812.92
2019-03-02T01:36:14.302Z,78810.91
2019-03-02T01:38:43.455Z,78803.83
2019-03-02T01:41:14.066Z,78818.99
2019-03-02T01:43:44.144Z,78814.95
2019-03-02T01:46:13.932Z,78829.09
2019-03-02T01:48:43.464Z,78828.09
2019-03-02T01:51:12.989Z,78813.94
2019-03-02T01:53:45.765Z,78822.02
2019-03-02T01:56:13.451Z,78833.14
2019-03-02T01:58:42.613Z,78846.28
2019-03-02T02:01:11.771Z,78843.25
2019-03-02T02:03:43.612Z,78860.42
2019-03-02T02:06:12.281Z,78846.28
2019-03-02T02:08:42.305Z,78863.45
2019-03-02T02:11:14.589Z,78863.45
2019-03-02T02:13:42.876Z,78863.45
2019-03-02T02:16:12.287Z,78862.45
2019-03-02T02:18:41.544Z,78859.41
2019-03-02T02:21:11.605Z,78864.47
2019-03-02T02:23:41.682Z,78846.28
2019-03-02T02:26:11.516Z,78840.21
2019-03-02T02:28:41.636Z,78849.31
2019-03-02T02:31:11.165Z,78839.20
2019-03-02T02:33:43.179Z,78833.14
2019-03-02T02:36:14.255Z,78828.09
2019-03-02T02:38:43.044Z,78830.11
2019-03-02T02:41:12.208Z,78809.89
2019-03-02T02:43:42.469Z,78804.84
2019-03-02T02:46:11.725Z,78812.92
2019-03-02T02:48:41.594Z,78811.92
2019-03-02T02:51:12.364Z,78808.89
2019-03-02T02:53:45.156Z,78804.84
2019-03-02T02:56:14.218Z,78781.60
2019-03-02T02:58:44.697Z,78784.63
2019-03-02T03:01:13.935Z,78771.49
2019-03-02T03:03:43.391Z,78760.38
2019-03-02T03:06:12.528Z,78745.22
2019-03-02T03:08:46.141Z,78740.16
2019-03-02T03:11:15.500Z,78744.20
2019-03-02T03:13:44.966Z,78770.48
2019-03-02T03:16:16.580Z,78779.58
2019-03-02T03:18:47.179Z,78769.47
2019-03-02T03:21:16.522Z,78743.20
2019-03-02T03:23:45.790Z,78737.13
2019-03-02T03:26:14.941Z,78759.37
2019-03-02T03:28:44.852Z,78761.39
2019-03-02T03:31:22.163Z,78764.42
2019-03-02T03:33:47.181Z,78781.60
2019-03-02T03:36:16.644Z,78779.58
2019-03-02T03:38:45.811Z,78787.66
2019-03-02T03:41:14.994Z,78786.66
2019-03-02T03:43:44.404Z,78789.69
2019-03-02T03:46:17.803Z,78794.73
2019-03-02T03:48:45.336Z,78790.70
2019-03-02T03:51:14.895Z,78778.56
2019-03-02T03:53:44.079Z,78783.63
2019-03-02T03:56:13.816Z,78772.50
2019-03-02T03:58:42.968Z,78778.56
2019-03-02T04:01:16.818Z,78771.49
2019-03-02T04:03:47.212Z,78771.49
2019-03-02T04:06:14.093Z,78773.52
2019-03-02T04:08:43.935Z,78770.48
2019-03-02T04:11:13.517Z,78762.40
2019-03-02T04:13:44.918Z,78784.63
2019-03-02T04:16:16.333Z,78798.78
2019-03-02T04:19:13.239Z,78797.77
2019-03-02T04:21:44.790Z,78791.70
2019-03-02T04:24:14.025Z,78796.76
2019-03-02T04:26:43.806Z,78793.73
2019-03-02T04:29:12.987Z,78794.73
2019-03-02T04:31:43.866Z,78797.77
2019-03-02T04:34:20.173Z,78791.70
2019-03-02T04:36:47.307Z,78789.69
2019-03-02T04:39:15.126Z,78784.63
2019-03-02T04:41:44.357Z,78783.63
2019-03-02T04:44:14.254Z,78782.61
2019-03-02T04:46:43.465Z,78757.34
2019-03-02T04:49:14.616Z,78742.19
2019-03-02T04:51:44.308Z,78759.37
2019-03-02T04:54:13.823Z,78750.27
2019-03-02T04:56:43.008Z,78740.16
2019-03-02T04:59:14.468Z,78740.16
2019-03-02T05:01:46.256Z,78751.28
2019-03-02T05:04:15.354Z,78739.16
2019-03-02T05:06:44.637Z,78742.19
2019-03-02T05:09:17.280Z,78730.06
2019-03-02T05:11:45.704Z,78722.98
2019-03-02T05:14:15.206Z,78722.98
2019-03-02T05:16:44.942Z,78714.91
2019-03-02T05:19:14.426Z,78729.05
2019-03-02T05:21:45.454Z,78710.86
2019-03-02T05:24:14.607Z,78716.92
2019-03-02T05:26:44.144Z,78708.84
2019-03-02T05:29:14.795Z,78711.88
2019-03-02T05:31:44.235Z,78720.97
2019-03-02T05:34:13.440Z,78704.80
2019-03-02T05:36:42.999Z,78714.91
2019-03-02T05:39:13.923Z,78731.07
2019-03-02T05:41:43.763Z,78715.91
2019-03-02T05:44:13.270Z,78730.06
2019-03-02T05:46:42.414Z,78737.13
2019-03-02T05:49:11.969Z,78735.11
2019-03-02T05:51:42.761Z,78713.89
2019-03-02T05:54:12.658Z,78716.92
2019-03-02T05:56:41.850Z,78727.03
2019-03-02T05:59:11.078Z,78708.84
2019-03-02T06:01:41.186Z,78711.88
2019-03-02T06:04:10.358Z,78708.84
2019-03-02T06:06:39.863Z,78716.92
2019-03-02T06:09:13.933Z,78708.84
2019-03-02T06:11:42.597Z,78714.91
2019-03-02T06:14:12.026Z,78719.95
2019-03-02T06:16:41.221Z,78717.94
2019-03-02T06:19:10.755Z,78716.92
2019-03-02T06:21:42.785Z,78736.13
2019-03-02T06:24:10.857Z,78769.47
2019-03-02T06:26:40.117Z,78790.70
2019-03-02T06:29:09.591Z,78815.95
2019-03-02T06:31:39.427Z,78836.17
2019-03-02T06:34:09.064Z,78840.21
2019-03-02T06:36:40.891Z,78839.20
2019-03-02T06:39:10.264Z,78824.05
2019-03-02T06:41:39.462Z,78813.94
2019-03-02T06:44:08.676Z,78813.94
2019-03-02T06:46:37.918Z,78804.84
2019-03-02T06:49:07.693Z,78795.75
2019-03-02T06:51:36.804Z,78787.66
2019-03-02T06:54:08.953Z,78773.52
2019-03-02T06:56:39.427Z,78761.39
2019-03-02T06:59:07.983Z,78752.30
2019-03-02T07:01:37.407Z,78721.98
2019-03-02T07:04:06.991Z,78698.73
2019-03-02T07:06:36.189Z,78681.55
2019-03-02T07:09:09.499Z,78660.33
2019-03-02T07:11:38.045Z,78653.26
2019-03-02T07:14:07.955Z,78650.23
2019-03-02T07:16:37.507Z,78642.14
2019-03-02T07:19:44.076Z,78633.05
2019-03-02T07:22:16.935Z,78625.97
2019-03-02T07:24:46.874Z,78620.92
2019-03-02T07:27:16.169Z,78610.81
2019-03-02T07:29:45.779Z,78619.91
2019-03-02T07:32:15.551Z,78610.81
2019-03-02T07:34:45.484Z,78597.67
2019-03-02T07:37:14.696Z,78604.75
2019-03-02T07:39:44.191Z,78607.78
2019-03-02T07:42:13.513Z,78598.69
2019-03-02T07:44:43.115Z,78600.71
2019-03-02T07:47:12.310Z,78589.59
2019-03-02T07:49:41.875Z,78591.61
2019-03-02T07:52:13.723Z,78580.50
2019-03-02T07:54:43.362Z,78572.41
2019-03-02T07:57:13.017Z,78568.38
2019-03-02T07:59:42.506Z,78563.32
2019-03-02T08:02:12.034Z,78561.30
2019-03-02T08:04:41.505Z,78569.38
2019-03-02T08:07:10.747Z,78562.31
2019-03-02T08:09:40.269Z,78559.28
2019-03-02T08:12:09.733Z,78555.23
2019-03-02T08:14:39.528Z,78546.14
2019-03-02T08:17:09.863Z,78547.15
2019-03-02T08:19:39.971Z,78542.09
2019-03-02T08:22:11.083Z,78540.08
2019-03-02T08:24:43.830Z,78541.09
2019-03-02T08:27:12.263Z,78534.02
2019-03-02T08:29:41.819Z,78542.09
2019-03-02T08:32:11.050Z,78531.99
2019-03-02T08:34:42.947Z,78531.99
2019-03-02T08:37:11.853Z,78534.02
2019-03-02T08:39:42.832Z,78524.92
2019-03-02T08:42:13.224Z,78517.84
2019-03-02T08:44:42.520Z,78520.88
2019-03-02T08:47:12.020Z,78508.75
2019-03-02T08:49:41.815Z,78497.63
2019-03-02T08:52:12.362Z,78499.66
2019-03-02T08:54:41.602Z,78500.66
2019-03-02T08:57:11.398Z,78515.83
2019-03-02T08:59:41.586Z,78505.72
2019-03-02T09:02:10.827Z,78506.73
2019-03-02T09:04:40.556Z,78493.59
2019-03-02T09:07:11.456Z,78477.42
2019-03-02T09:09:41.315Z,78479.45
2019-03-02T09:12:10.823Z,78466.31
2019-03-02T09:14:40.099Z,78466.31
2019-03-02T09:17:10.060Z,78463.28
2019-03-02T09:19:39.218Z,78461.26
2019-03-02T09:22:08.755Z,78461.26
2019-03-02T09:24:37.976Z,78458.23
2019-03-02T09:27:07.459Z,78451.16
2019-03-02T09:29:36.675Z,78454.19
2019-03-02T09:32:05.958Z,78446.09
2019-03-02T09:34:36.993Z,78433.97
2019-03-02T09:37:07.029Z,78434.98
2019-03-02T09:39:38.187Z,78423.87
2019-03-02T09:42:07.502Z,78430.94
2019-03-02T09:44:37.042Z,78420.84
2019-03-02T09:47:09.137Z,78418.81
2019-03-02T09:49:38.298Z,78423.87
2019-03-02T09:52:07.634Z,78412.75
2019-03-02T09:54:36.834Z,78416.80
2019-03-02T09:57:06.081Z,78407.70
2019-03-02T09:59:35.603Z,78407.70
2019-03-02T10:02:04.744Z,78405.68
2019-03-02T10:04:35.896Z,78410.73
2019-03-02T10:07:05.886Z,78394.56
2019-03-02T10:09:35.452Z,78382.44
2019-03-02T10:12:05.788Z,78374.36
2019-03-02T10:14:35.278Z,78366.27
2019-03-02T10:17:04.705Z,78351.11
2019-03-02T10:19:34.274Z,78346.06
2019-03-02T10:22:03.371Z,78334.95
2019-03-02T10:24:33.005Z,78323.83
2019-03-02T10:27:02.155Z,78330.91
2019-03-02T10:29:32.555Z,78350.10
2019-03-02T10:32:04.383Z,78328.88
2019-03-02T10:34:33.736Z,78294.53
2019-03-02T10:37:03.588Z,78287.45
2019-03-02T10:39:34.227Z,78237.94
2019-03-02T10:42:03.769Z,78227.84
2019-03-02T10:44:33.262Z,78218.74
2019-03-02T10:47:02.778Z,78217.73
2019-03-02T10:49:31.943Z,78219.75
2019-03-02T10:52:02.213Z,78241.98
2019-03-02T10:54:31.554Z,78236.93
2019-03-02T10:57:02.638Z,78230.87
2019-03-02T10:59:32.186Z,78218.74
2019-03-02T11:02:02.333Z,78223.80
2019-03-02T11:04:41.056Z,78239.96
2019-03-02T11:07:50.617Z,78197.52
2019-03-02T11:10:36.227Z,78170.24
2019-03-02T11:13:30.803Z,78172.27
2019-03-02T11:16:13.549Z,78176.30
2019-03-02T11:18:52.072Z,78138.92
2019-03-02T11:21:34.798Z,78104.56
2019-03-02T11:24:22.914Z,78091.43
2019-03-02T11:27:13.159Z,78023.73
2019-03-02T11:29:56.617Z,78020.70
2019-03-02T11:32:47.504Z,77966.14
2019-03-02T11:35:32.300Z,77957.05
2019-03-02T11:38:13.094Z,77979.27
2019-03-02T11:40:56.704Z,77958.06
2019-03-02T11:44:02.315Z,77961.09
2019-03-02T11:46:39.807Z,77967.15
2019-03-02T11:49:29.946Z,77931.79
2019-03-02T11:52:11.541Z,77888.34
2019-03-02T11:54:50.596Z,77838.84
2019-03-02T11:57:42.114Z,77846.92
2019-03-02T12:00:37.440Z,77818.63
2019-03-02T12:03:19.054Z,77791.34
2019-03-02T12:06:07.092Z,77758.01
2019-03-02T12:09:01.820Z,77777.20
2019-03-02T12:11:50.363Z,77819.64
2019-03-02T12:14:53.502Z,77813.58
2019-03-02T12:17:44.378Z,77784.27
2019-03-02T12:20:32.435Z,77758.01
2019-03-02T12:23:19.493Z,77746.89
2019-03-02T12:25:57.819Z,77728.70
2019-03-02T12:28:45.855Z,77700.42
2019-03-02T12:31:31.864Z,77689.30
2019-03-02T12:34:19.624Z,77705.47
2019-03-02T12:37:03.160Z,77704.46
2019-03-02T12:39:38.333Z,77695.37
2019-03-02T12:42:22.846Z,77690.31
2019-03-02T12:45:13.798Z,77708.50
2019-03-02T12:47:53.198Z,77766.09
2019-03-02T12:50:35.600Z,77749.92
2019-03-02T12:53:13.635Z,77750.94
2019-03-02T12:56:01.792Z,77771.14
2019-03-02T12:59:02.167Z,77768.11
2019-03-02T13:01:49.348Z,77774.17
2019-03-02T13:04:26.845Z,77757.00
2019-03-02T13:07:21.305Z,77749.92
2019-03-02T13:09:56.887Z,77742.85
2019-03-02T13:13:04.039Z,77742.85
2019-03-02T13:15:50.960Z,77729.72
2019-03-02T13:18:38.727Z,77722.64
2019-03-02T13:21:32.944Z,77717.59
2019-03-02T13:24:22.493Z,77694.36
2019-03-02T13:26:58.144Z,77680.22
2019-03-02T13:29:55.340Z,77678.19
2019-03-02T13:32:55.977Z,77693.34
2019-03-02T13:35:33.511Z,77692.34
2019-03-02T13:38:20.085Z,77674.15
2019-03-02T13:41:11.301Z,77652.94
2019-03-02T13:43:52.966Z,77630.70
2019-03-02T13:46:59.777Z,77620.61
2019-03-02T13:49:40.264Z,77609.49
2019-03-02T13:52:31.331Z,77597.37
2019-03-02T13:55:19.342Z,77591.31
2019-03-02T13:58:06.993Z,77596.36
2019-03-02T14:00:51.267Z,77593.33
2019-03-02T14:03:36.500Z,77585.25
2019-03-02T14:06:28.252Z,77561.00
2019-03-02T14:09:21.519Z,77527.66
2019-03-02T14:12:19.805Z,77495.33
2019-03-02T14:14:59.458Z,77492.30
2019-03-02T14:17:42.294Z,77534.73
2019-03-02T14:20:34.741Z,77503.41
2019-03-02T14:23:31.326Z,77509.48
2019-03-02T14:26:19.685Z,77484.22
2019-03-02T14:29:04.386Z,77507.45
2019-03-02T14:31:42.226Z,77533.72
2019-03-02T14:34:19.612Z,77494.32
2019-03-02T14:36:59.880Z,77480.17
2019-03-02T14:39:49.239Z,77486.23
2019-03-02T14:42:45.730Z,77505.44
2019-03-02T14:45:24.170Z,77528.67
2019-03-02T14:48:13.687Z,77537.77
2019-03-02T14:51:02.427Z,77498.36
2019-03-02T14:53:46.027Z,77482.20
2019-03-02T14:56:37.568Z,77441.78
2019-03-02T14:59:24.650Z,77463.00
2019-03-02T15:02:13.078Z,77442.80
2019-03-02T15:05:02.042Z,77445.83
2019-03-02T15:08:00.263Z,77430.67
2019-03-02T15:10:44.195Z,77435.73
2019-03-02T15:13:32.612Z,77459.97
2019-03-02T15:16:19.734Z,77501.39
2019-03-02T15:19:15.366Z,77511.50
2019-03-02T15:22:04.067Z,77490.28
2019-03-02T15:24:56.950Z,77466.03
2019-03-02T15:27:35.977Z,77459.97
2019-03-02T15:30:19.168Z,77467.05
2019-03-02T15:33:15.114Z,77483.20
2019-03-02T15:36:07.180Z,77466.03
2019-03-02T15:38:59.069Z,77446.84
2019-03-02T15:41:50.181Z,77449.88
2019-03-02T15:44:37.110Z,77472.09
2019-03-02T15:47:23.975Z,77524.63
2019-03-02T15:50:21.490Z,77551.91
2019-03-02T15:52:56.236Z,77557.97
2019-03-02T15:55:56.698Z,77558.98
2019-03-02T15:58:45.364Z,77542.81
2019-03-02T16:01:39.618Z,77549.89
2019-03-02T16:04:23.998Z,77561.00
2019-03-02T16:07:11.307Z,77572.11
2019-03-02T16:10:17.576Z,77569.08
2019-03-02T16:13:08.764Z,77563.02
2019-03-02T16:15:48.942Z,77566.05
2019-03-02T16:18:31.563Z,77571.10
2019-03-02T16:21:25.932Z,77569.08
2019-03-02T16:24:13.669Z,77573.13
2019-03-02T16:27:00.821Z,77582.22
2019-03-02T16:29:42.114Z,77595.34
2019-03-02T16:32:29.493Z,77586.25
2019-03-02T16:35:10.400Z,77603.43
2019-03-02T16:38:17.106Z,77605.45
2019-03-02T16:40:58.212Z,77598.38
2019-03-02T16:43:33.868Z,77605.45
2019-03-02T16:46:22.053Z,77605.45
2019-03-02T16:49:16.383Z,77611.52
2019-03-02T16:52:06.220Z,77617.58
2019-03-02T16:54:58.599Z,77610.50
2019-03-02T16:57:49.916Z,77604.44
2019-03-02T17:00:42.343Z,77608.48
2019-03-02T17:03:29.168Z,77613.53
2019-03-02T17:06:09.765Z,77629.70
2019-03-02T17:09:03.786Z,77627.68
2019-03-02T17:11:42.989Z,77641.82
2019-03-02T17:14:29.776Z,77633.73
2019-03-02T17:17:18.231Z,77637.78
2019-03-02T17:19:54.240Z,77637.78
2019-03-02T17:22:42.747Z,77653.95
2019-03-02T17:25:32.248Z,77661.02
2019-03-02T17:28:36.170Z,77656.98
2019-03-02T17:31:17.296Z,77652.94
2019-03-02T17:34:09.938Z,77650.91
2019-03-02T17:36:45.700Z,77663.03
2019-03-02T17:39:32.613Z,77653.95
2019-03-02T17:42:16.822Z,77663.03
2019-03-02T17:45:05.281Z,77663.03
2019-03-02T17:47:52.532Z,77663.03
2019-03-02T17:50:33.882Z,77668.09
2019-03-02T17:53:23.086Z,77661.02
2019-03-02T17:56:11.915Z,77663.03
2019-03-02T17:59:04.175Z,77667.08
2019-03-02T18:01:50.047Z,77666.07
2019-03-02T18:04:44.106Z,77666.07
2019-03-02T18:07:44.417Z,77664.05
2019-03-02T18:10:22.719Z,77675.16
2019-03-02T18:13:14.020Z,77688.30
2019-03-02T18:16:06.513Z,77694.36
2019-03-02T18:18:36.487Z,77706.48
2019-03-02T18:21:05.721Z,77713.55
2019-03-02T18:23:35.599Z,77713.55
2019-03-02T18:26:04.911Z,77710.52
2019-03-02T18:28:34.063Z,77720.63
2019-03-02T18:31:03.334Z,77718.61
2019-03-02T18:34:00.576Z,77722.64
2019-03-02T18:36:29.751Z,77731.73
2019-03-02T18:39:01.035Z,77720.63
2019-03-02T18:41:30.510Z,77722.64
2019-03-02T18:44:00.836Z,77726.69
2019-03-02T18:46:30.193Z,77731.73
2019-03-02T18:49:14.135Z,77734.77
2019-03-02T18:52:04.421Z,77739.82
2019-03-02T18:54:34.575Z,77732.75
2019-03-02T18:57:03.930Z,77736.79
2019-03-02T18:59:33.192Z,77730.73
2019-03-02T19:02:05.007Z,77740.83
2019-03-02T19:04:37.157Z,77741.84
2019-03-02T19:07:05.078Z,77740.83
2019-03-02T19:09:35.012Z,77733.76
2019-03-02T19:12:04.317Z,77732.75
2019-03-02T19:14:33.618Z,77738.81
2019-03-02T19:17:02.799Z,77741.84
2019-03-02T19:19:32.892Z,77748.91
2019-03-02T19:22:02.214Z,77753.97
2019-03-02T19:24:32.487Z,77755.98
2019-03-02T19:27:01.702Z,77758.01
2019-03-02T19:29:31.353Z,77749.92
2019-03-02T19:32:01.093Z,77760.03
2019-03-02T19:34:30.874Z,77750.94
2019-03-02T19:37:00.175Z,77744.88
2019-03-02T19:39:29.817Z,77734.77
2019-03-02T19:41:59.176Z,77728.70
2019-03-02T19:44:28.522Z,77726.69
2019-03-02T19:46:57.734Z,77713.55
2019-03-02T19:49:27.330Z,77704.46
2019-03-02T19:51:56.710Z,77704.46
2019-03-02T19:54:26.874Z,77683.24
2019-03-02T19:56:56.150Z,77687.28
2019-03-02T19:59:25.432Z,77687.28
2019-03-02T20:01:54.743Z,77688.30
2019-03-02T20:04:24.568Z,77684.25
2019-03-02T20:06:54.698Z,77685.27
2019-03-02T20:09:24.858Z,77679.20
2019-03-02T20:11:54.610Z,77680.22
2019-03-02T20:14:23.809Z,77683.24
2019-03-02T20:16:52.981Z,77681.22
2019-03-02T20:19:22.333Z,77687.28
2019-03-02T20:21:51.821Z,77682.23
2019-03-02T20:24:21.336Z,77684.25
2019-03-02T20:26:50.605Z,77677.19
2019-03-02T20:29:20.056Z,77673.14
2019-03-02T20:31:50.424Z,77667.08
2019-03-02T20:34:20.049Z,77669.09
2019-03-02T20:36:49.683Z,77674.15
2019-03-02T20:39:18.988Z,77672.13
2019-03-02T20:41:48.413Z,77669.09
2019-03-02T20:44:18.434Z,77666.07
2019-03-02T20:46:47.830Z,77660.01
2019-03-02T20:49:17.022Z,77648.89
2019-03-02T20:51:46.716Z,77646.88
2019-03-02T20:54:15.867Z,77636.77
2019-03-02T20:56:45.885Z,77635.76
2019-03-02T20:59:15.604Z,77644.85
2019-03-02T21:01:44.851Z,77648.89
2019-03-02T21:04:14.459Z,77644.85
2019-03-02T21:06:44.177Z,77643.84
2019-03-02T21:09:13.373Z,77634.75
2019-03-02T21:11:43.014Z,77630.70
2019-03-02T21:14:12.205Z,77625.66
2019-03-02T21:16:42.147Z,77622.63
2019-03-02T21:19:11.756Z,77607.47
2019-03-02T21:21:40.946Z,77607.47
2019-03-02T21:24:10.512Z,77607.47
2019-03-02T21:26:40.438Z,77602.42
2019-03-02T21:29:09.624Z,77609.49
2019-03-02T21:31:38.830Z,77591.31
2019-03-02T21:34:07.986Z,77581.20
2019-03-02T21:36:37.564Z,77590.30
2019-03-02T21:39:08.417Z,77583.23
2019-03-02T21:41:38.077Z,77596.36
2019-03-02T21:44:07.270Z,77601.41
2019-03-02T21:46:36.469Z,77590.30
2019-03-02T21:49:05.993Z,77581.20
2019-03-02T21:51:35.150Z,77584.23
2019-03-02T21:54:05.102Z,77587.27
2019-03-02T21:56:34.987Z,77580.20
2019-03-02T21:59:04.425Z,77586.25
2019-03-02T22:01:33.651Z,77567.06
2019-03-02T22:04:02.826Z,77569.08
2019-03-02T22:06:32.089Z,77571.10
2019-03-02T22:09:01.857Z,77571.10
2019-03-02T22:11:31.004Z,77568.07
2019-03-02T22:14:00.408Z,77562.01
2019-03-02T22:16:30.250Z,77568.07
2019-03-02T22:18:59.415Z,77561.00
2019-03-02T22:21:28.638Z,77569.08
2019-03-02T22:23:58.260Z,77575.14
2019-03-02T22:26:27.909Z,77571.10
2019-03-02T22:28:57.062Z,77584.23
2019-03-02T22:31:26.862Z,77578.17
2019-03-02T22:33:56.078Z,77567.06
2019-03-02T22:36:25.257Z,77566.05
2019-03-02T22:38:54.693Z,77571.10
2019-03-02T22:41:24.040Z,77566.05
2019-03-02T22:43:53.512Z,77563.02
2019-03-02T22:46:22.706Z,77572.11
2019-03-02T22:48:52.056Z,77574.13
2019-03-02T22:51:21.890Z,77576.16
2019-03-02T22:53:51.044Z,77577.16
2019-03-02T22:56:20.363Z,77584.23
2019-03-02T22:58:48.898Z,77577.16
2019-03-02T23:01:58.120Z,77572.11
2019-03-02T23:04:27.269Z,77564.03
2019-03-02T23:06:56.865Z,77562.01
2019-03-02T23:09:26.429Z,77558.98
2019-03-02T23:11:55.934Z,77557.97
2019-03-02T23:14:25.171Z,77543.83
2019-03-02T23:16:55.309Z,77554.94
2019-03-02T23:19:24.572Z,77547.86
2019-03-02T23:21:54.144Z,77556.95
2019-03-02T23:24:23.567Z,77585.25
2019-03-02T23:26:52.779Z,77582.22
2019-03-02T23:29:22.150Z,77569.08
2019-03-02T23:31:51.675Z,77572.11
2019-03-02T23:34:20.869Z,77568.07
2019-03-02T23:36:50.387Z,77566.05
2019-03-02T23:39:19.644Z,77564.03
2019-03-02T23:41:49.191Z,77561.00
2019-03-02T23:44:18.391Z,77553.92
2019-03-02T23:46:47.575Z,77541.80
2019-03-02T23:49:16.745Z,77555.95
2019-03-02T23:51:46.320Z,77562.01
2019-03-02T23:54:15.492Z,77559.98
2019-03-02T23:56:45.120Z,77565.04
2019-03-02T23:59:14.339Z,77554.94
